createdAt,value
2019-01-04T00:00:56.415Z,48.27
2019-01-04T00:01:58.370Z,48.30
2019-01-04T00:03:00.320Z,48.33
2019-01-04T00:04:02.264Z,48.35
2019-01-04T00:05:04.235Z,48.38
2019-01-04T00:06:06.176Z,48.38
2019-01-04T00:07:08.195Z,48.38
2019-01-04T00:08:10.129Z,48.36
2019-01-04T00:09:12.134Z,48.40
2019-01-04T00:10:14.107Z,48.38
2019-01-04T00:11:16.040Z,48.39
2019-01-04T00:12:18.066Z,48.37
2019-01-04T00:13:20.009Z,48.42
2019-01-04T00:14:22.019Z,48.43
2019-01-04T00:15:23.977Z,48.42
2019-01-04T00:16:26.070Z,48.46
2019-01-04T00:17:28.010Z,48.49
2019-01-04T00:18:29.978Z,48.51
2019-01-04T00:19:31.975Z,48.53
2019-01-04T00:20:33.974Z,48.55
2019-01-04T00:21:36.004Z,48.55
2019-01-04T00:22:37.942Z,48.54
2019-01-04T00:23:39.900Z,48.55
2019-01-04T00:24:41.931Z,48.55
2019-01-04T00:25:43.907Z,48.56
2019-01-04T00:26:45.858Z,48.58
2019-01-04T00:27:47.794Z,48.56
2019-01-04T00:28:52.104Z,48.56
2019-01-04T00:29:54.054Z,48.60
2019-01-04T00:30:56.026Z,48.62
2019-01-04T00:31:57.963Z,48.65
2019-01-04T00:32:59.944Z,48.66
2019-01-04T00:34:02.526Z,48.66
2019-01-04T00:35:04.465Z,48.73
2019-01-04T00:36:06.421Z,48.74
2019-01-04T00:37:08.432Z,48.73
2019-01-04T00:38:10.366Z,48.73
2019-01-04T00:39:12.305Z,48.69
2019-01-04T00:40:14.240Z,48.72
2019-01-04T00:41:16.206Z,48.72
2019-01-04T00:42:18.234Z,48.75
2019-01-04T00:43:20.183Z,48.75
2019-01-04T00:44:22.195Z,48.75
2019-01-04T00:45:24.146Z,48.74
2019-01-04T00:46:26.115Z,48.75
2019-01-04T00:47:28.048Z,48.80
2019-01-04T00:48:29.996Z,48.79
2019-01-04T00:49:31.940Z,48.81
2019-01-04T00:50:33.886Z,48.79
2019-01-04T00:51:35.843Z,48.82
2019-01-04T00:52:37.785Z,48.85
2019-01-04T00:53:39.734Z,48.81
2019-01-04T00:54:41.828Z,48.83
2019-01-04T00:55:43.853Z,48.81
2019-01-04T00:56:45.802Z,48.85
2019-01-04T00:57:47.737Z,48.85
2019-01-04T00:58:49.684Z,48.85
2019-01-04T00:59:51.621Z,48.87
2019-01-04T01:00:53.566Z,48.87
2019-01-04T01:01:55.544Z,48.86
2019-01-04T01:02:57.475Z,48.88
2019-01-04T01:03:59.419Z,48.89
2019-01-04T01:05:01.362Z,48.94
2019-01-04T01:06:03.323Z,48.93
2019-01-04T01:07:05.297Z,48.95
2019-01-04T01:08:07.260Z,48.93
2019-01-04T01:09:09.192Z,48.96
2019-01-04T01:10:11.140Z,48.93
2019-01-04T01:11:13.082Z,48.96
2019-01-04T01:12:15.519Z,48.93
2019-01-04T01:13:19.642Z,48.91
2019-01-04T01:14:21.574Z,48.92
2019-01-04T01:15:23.553Z,48.97
2019-01-04T01:16:25.522Z,48.96
2019-01-04T01:17:27.511Z,48.98
2019-01-04T01:18:29.440Z,48.99
2019-01-04T01:19:31.389Z,49.02
2019-01-04T01:20:33.398Z,49.02
2019-01-04T01:21:35.356Z,49.05
2019-01-04T01:22:37.346Z,49.04
2019-01-04T01:23:39.364Z,49.07
2019-01-04T01:24:41.324Z,49.06
2019-01-04T01:25:43.357Z,49.08
2019-01-04T01:26:45.294Z,49.08
2019-01-04T01:27:47.265Z,49.09
2019-01-04T01:28:49.214Z,49.10
2019-01-04T01:29:51.152Z,49.10
2019-01-04T01:30:53.082Z,49.06
2019-01-04T01:31:58.034Z,49.08
2019-01-04T01:33:00.004Z,49.11
2019-01-04T01:34:02.006Z,49.12
2019-01-04T01:35:03.956Z,49.14
2019-01-04T01:36:05.913Z,49.15
2019-01-04T01:37:07.874Z,49.11
2019-01-04T01:38:09.862Z,49.12
2019-01-04T01:39:12.015Z,49.12
2019-01-04T01:40:13.956Z,49.11
2019-01-04T01:41:15.976Z,49.10
2019-01-04T01:42:17.913Z,49.10
2019-01-04T01:43:19.920Z,49.11
2019-01-04T01:44:21.918Z,49.15
2019-01-04T01:45:23.861Z,49.14
2019-01-04T01:46:25.799Z,49.17
2019-01-04T01:47:27.754Z,49.21
2019-01-04T01:48:29.985Z,49.18
2019-01-04T01:49:32.000Z,49.18
2019-01-04T01:50:33.984Z,49.19
2019-01-04T01:51:35.946Z,49.20
2019-01-04T01:52:37.951Z,49.22
2019-01-04T01:53:39.929Z,49.24
2019-01-04T01:54:41.861Z,49.19
2019-01-04T01:55:43.798Z,49.23
2019-01-04T01:56:45.804Z,49.20
2019-01-04T01:57:47.741Z,49.24
2019-01-04T01:58:49.774Z,49.24
2019-01-04T01:59:51.731Z,49.24
2019-01-04T02:00:53.659Z,49.25
2019-01-04T02:01:55.609Z,49.25
2019-01-04T02:02:57.551Z,49.27
2019-01-04T02:03:59.524Z,49.27
2019-01-04T02:05:01.543Z,49.29
2019-01-04T02:06:03.489Z,49.27
2019-01-04T02:07:05.445Z,49.29
2019-01-04T02:08:07.384Z,49.24
2019-01-04T02:09:11.698Z,49.24
2019-01-04T02:10:13.639Z,49.25
2019-01-04T02:11:15.588Z,49.30
2019-01-04T02:12:17.602Z,49.28
2019-01-04T02:13:19.531Z,49.27
2019-01-04T02:14:21.563Z,49.28
2019-01-04T02:15:23.573Z,49.28
2019-01-04T02:16:25.522Z,49.28
2019-01-04T02:17:27.532Z,49.30
2019-01-04T02:18:29.476Z,49.31
2019-01-04T02:19:31.441Z,49.33
2019-01-04T02:20:33.392Z,49.30
2019-01-04T02:21:35.334Z,49.31
2019-01-04T02:22:37.285Z,49.32
2019-01-04T02:23:39.308Z,49.34
2019-01-04T02:24:41.360Z,49.34
2019-01-04T02:25:43.299Z,49.36
2019-01-04T02:26:45.233Z,49.36
2019-01-04T02:27:47.167Z,49.36
2019-01-04T02:28:49.164Z,49.38
2019-01-04T02:29:51.212Z,49.36
2019-01-04T02:30:53.158Z,49.37
2019-01-04T02:31:55.192Z,49.37
2019-01-04T02:32:57.145Z,49.39
2019-01-04T02:33:59.085Z,49.36
2019-01-04T02:35:03.225Z,49.39
2019-01-04T02:36:05.185Z,49.42
2019-01-04T02:37:07.179Z,49.43
2019-01-04T02:38:09.198Z,49.42
2019-01-04T02:39:11.147Z,49.41
2019-01-04T02:40:15.338Z,49.46
2019-01-04T02:41:17.354Z,49.45
2019-01-04T02:42:21.458Z,49.47
2019-01-04T02:43:23.389Z,49.43
2019-01-04T02:44:25.334Z,49.46
2019-01-04T02:45:27.384Z,49.43
2019-01-04T02:46:29.319Z,49.45
2019-01-04T02:47:31.271Z,49.43
2019-01-04T02:48:35.239Z,49.46
2019-01-04T02:49:36.958Z,49.47
2019-01-04T02:50:40.757Z,49.48
2019-01-04T02:51:42.722Z,49.46
2019-01-04T02:52:44.743Z,49.46
2019-01-04T02:53:50.491Z,49.46
2019-01-04T02:54:52.435Z,49.50
2019-01-04T02:55:56.409Z,49.51
2019-01-04T02:56:58.067Z,49.51
2019-01-04T02:58:00.008Z,49.48
2019-01-04T02:59:02.025Z,49.47
2019-01-04T03:00:03.974Z,49.49
2019-01-04T03:01:06.088Z,49.49
2019-01-04T03:02:10.935Z,49.51
2019-01-04T03:03:15.009Z,49.53
2019-01-04T03:04:16.947Z,49.52
2019-01-04T03:05:21.574Z,49.53
2019-01-04T03:06:23.617Z,49.52
2019-01-04T03:07:25.554Z,49.53
2019-01-04T03:08:27.508Z,49.54
2019-01-04T03:09:29.450Z,49.55
2019-01-04T03:10:31.402Z,49.57
2019-01-04T03:11:33.433Z,49.56
2019-01-04T03:12:35.375Z,49.57
2019-01-04T03:13:37.392Z,49.55
2019-01-04T03:14:39.422Z,49.53
2019-01-04T03:15:45.080Z,49.54
2019-01-04T03:16:47.049Z,49.54
2019-01-04T03:17:48.990Z,49.52
2019-01-04T03:18:50.990Z,49.53
2019-01-04T03:19:52.940Z,49.53
2019-01-04T03:20:54.876Z,49.56
2019-01-04T03:21:56.836Z,49.57
2019-01-04T03:22:58.772Z,49.57
2019-01-04T03:24:00.789Z,49.55
2019-01-04T03:25:02.725Z,49.56
2019-01-04T03:26:04.758Z,49.59
2019-01-04T03:27:09.335Z,49.57
2019-01-04T03:28:11.277Z,49.57
2019-01-04T03:29:13.228Z,49.56
2019-01-04T03:30:15.170Z,49.57
2019-01-04T03:31:17.097Z,49.58
2019-01-04T03:32:19.065Z,49.62
2019-01-04T03:33:21.077Z,49.60
2019-01-04T03:34:23.012Z,49.57
2019-01-04T03:35:24.959Z,49.60
2019-01-04T03:36:26.908Z,49.63
2019-01-04T03:37:28.894Z,49.65
2019-01-04T03:38:30.834Z,49.62
2019-01-04T03:39:34.898Z,49.61
2019-01-04T03:40:36.904Z,49.64
2019-01-04T03:41:38.840Z,49.61
2019-01-04T03:42:40.816Z,49.61
2019-01-04T03:43:42.757Z,49.63
2019-01-04T03:44:44.682Z,49.62
2019-01-04T03:45:46.614Z,49.64
2019-01-04T03:46:48.556Z,49.66
2019-01-04T03:47:50.519Z,49.67
2019-01-04T03:48:52.457Z,49.65
2019-01-04T03:49:54.385Z,49.68
2019-01-04T03:50:58.645Z,49.64
2019-01-04T03:52:00.618Z,49.66
2019-01-04T03:53:02.649Z,49.65
2019-01-04T03:54:04.658Z,49.65
2019-01-04T03:55:06.599Z,49.66
2019-01-04T03:56:08.545Z,49.68
2019-01-04T03:57:10.485Z,49.71
2019-01-04T03:58:12.455Z,49.70
2019-01-04T03:59:14.389Z,49.70
2019-01-04T04:00:16.317Z,49.70
2019-01-04T04:01:18.288Z,49.70
2019-01-04T04:02:20.306Z,49.74
2019-01-04T04:03:22.354Z,49.73
2019-01-04T04:04:24.363Z,49.72
2019-01-04T04:05:26.315Z,49.71
2019-01-04T04:06:28.374Z,49.70
2019-01-04T04:07:30.348Z,49.68
2019-01-04T04:08:32.313Z,49.69
2019-01-04T04:09:34.336Z,49.73
2019-01-04T04:10:36.276Z,49.73
2019-01-04T04:11:38.228Z,49.73
2019-01-04T04:12:40.243Z,49.70
2019-01-04T04:13:42.281Z,49.71
2019-01-04T04:14:44.226Z,49.74
2019-01-04T04:15:46.172Z,49.73
2019-01-04T04:16:48.180Z,49.74
2019-01-04T04:17:50.197Z,49.80
2019-01-04T04:18:52.236Z,49.78
2019-01-04T04:19:54.166Z,49.79
2019-01-04T04:20:56.107Z,49.74
2019-01-04T04:21:58.036Z,49.75
2019-01-04T04:22:59.996Z,49.76
2019-01-04T04:24:02.032Z,49.77
2019-01-04T04:25:03.980Z,49.74
2019-01-04T04:26:06.072Z,49.77
2019-01-04T04:27:08.008Z,49.77
2019-01-04T04:28:09.953Z,49.77
2019-01-04T04:29:12.008Z,49.75
2019-01-04T04:30:13.950Z,49.74
2019-01-04T04:31:15.894Z,49.78
2019-01-04T04:32:17.835Z,49.78
2019-01-04T04:33:19.771Z,49.76
2019-01-04T04:34:21.762Z,49.78
2019-01-04T04:35:26.864Z,49.78
2019-01-04T04:36:28.806Z,49.77
2019-01-04T04:37:30.834Z,49.78
2019-01-04T04:38:32.857Z,49.80
2019-01-04T04:39:34.894Z,49.79
2019-01-04T04:40:36.822Z,49.81
2019-01-04T04:41:38.849Z,49.81
2019-01-04T04:42:40.789Z,49.82
2019-01-04T04:43:42.718Z,49.81
2019-01-04T04:44:44.661Z,49.83
2019-01-04T04:45:46.594Z,49.80
2019-01-04T04:46:48.540Z,49.82
2019-01-04T04:47:50.556Z,49.81
2019-01-04T04:48:54.639Z,49.83
2019-01-04T04:49:56.602Z,49.82
2019-01-04T04:50:58.553Z,49.85
2019-01-04T04:52:00.502Z,49.87
2019-01-04T04:53:02.527Z,49.86
2019-01-04T04:54:04.540Z,49.81
2019-01-04T04:55:06.511Z,49.83
2019-01-04T04:56:08.434Z,49.80
2019-01-04T04:57:10.367Z,49.83
2019-01-04T04:58:12.372Z,49.85
2019-01-04T04:59:14.305Z,49.86
2019-01-04T05:00:16.279Z,49.88
2019-01-04T05:01:18.314Z,49.85
2019-01-04T05:02:20.317Z,49.83
2019-01-04T05:03:22.253Z,49.85
2019-01-04T05:04:24.199Z,49.86
2019-01-04T05:05:26.177Z,49.88
2019-01-04T05:06:29.275Z,49.87
2019-01-04T05:07:31.215Z,49.89
2019-01-04T05:08:33.225Z,49.89
2019-01-04T05:09:37.570Z,49.87
2019-01-04T05:10:39.540Z,49.88
2019-01-04T05:11:41.489Z,49.88
2019-01-04T05:12:43.439Z,49.87
2019-01-04T05:13:45.449Z,49.89
2019-01-04T05:14:47.391Z,49.88
2019-01-04T05:15:49.358Z,49.91
2019-01-04T05:16:51.290Z,49.91
2019-01-04T05:17:53.235Z,49.90
2019-01-04T05:18:55.174Z,49.92
2019-01-04T05:19:57.123Z,49.90
2019-01-04T05:20:59.067Z,49.90
2019-01-04T05:22:02.597Z,49.91
2019-01-04T05:23:04.557Z,49.93
2019-01-04T05:24:06.577Z,49.97
2019-01-04T05:25:08.519Z,49.98
2019-01-04T05:26:10.556Z,49.96
2019-01-04T05:27:12.553Z,49.94
2019-01-04T05:28:14.485Z,49.95
2019-01-04T05:29:16.433Z,49.94
2019-01-04T05:30:18.438Z,49.91
2019-01-04T05:31:22.796Z,49.94
2019-01-04T05:32:24.742Z,49.96
2019-01-04T05:33:26.682Z,49.93
2019-01-04T05:34:28.623Z,49.93
2019-01-04T05:35:30.569Z,49.94
2019-01-04T05:36:32.543Z,49.97
2019-01-04T05:37:34.559Z,49.98
2019-01-04T05:38:36.495Z,49.96
2019-01-04T05:39:38.425Z,49.96
2019-01-04T05:40:40.360Z,49.98
2019-01-04T05:41:42.309Z,49.98
2019-01-04T05:42:44.261Z,50.00
2019-01-04T05:43:46.277Z,50.01
2019-01-04T05:44:48.222Z,49.99
2019-01-04T05:45:50.168Z,49.99
2019-01-04T05:46:52.104Z,50.00
2019-01-04T05:47:54.048Z,49.99
2019-01-04T05:48:55.993Z,49.99
2019-01-04T05:49:57.917Z,50.00
2019-01-04T05:50:59.860Z,49.98
2019-01-04T05:52:01.827Z,49.98
2019-01-04T05:53:03.916Z,49.92
2019-01-04T05:54:05.941Z,49.88
2019-01-04T05:55:07.877Z,49.87
2019-01-04T05:56:09.817Z,49.90
2019-01-04T05:57:11.851Z,49.86
2019-01-04T05:58:13.804Z,49.79
2019-01-04T05:59:15.817Z,49.77
2019-01-04T06:00:17.814Z,49.72
2019-01-04T06:01:19.761Z,49.61
2019-01-04T06:02:21.770Z,49.53
2019-01-04T06:03:23.715Z,49.51
2019-01-04T06:04:27.656Z,49.49
2019-01-04T06:05:29.602Z,49.44
2019-01-04T06:06:31.548Z,49.36
2019-01-04T06:07:33.501Z,49.38
2019-01-04T06:08:35.622Z,49.37
2019-01-04T06:09:37.540Z,49.38
2019-01-04T06:10:39.473Z,49.36
2019-01-04T06:11:41.435Z,49.34
2019-01-04T06:12:43.460Z,49.35
2019-01-04T06:13:45.471Z,49.40
2019-01-04T06:14:47.409Z,49.43
2019-01-04T06:15:49.353Z,49.41
2019-01-04T06:16:51.306Z,49.40
2019-01-04T06:17:53.236Z,49.42
2019-01-04T06:18:55.178Z,49.47
2019-01-04T06:19:57.120Z,49.52
2019-01-04T06:20:59.134Z,49.59
2019-01-04T06:22:01.082Z,49.61
2019-01-04T06:23:03.017Z,49.65
2019-01-04T06:24:04.957Z,49.65
2019-01-04T06:25:06.919Z,49.63
2019-01-04T06:26:08.920Z,49.68
2019-01-04T06:27:10.870Z,49.72
2019-01-04T06:28:12.806Z,49.67
2019-01-04T06:29:14.742Z,49.72
2019-01-04T06:30:16.677Z,49.71
2019-01-04T06:31:18.627Z,49.76
2019-01-04T06:32:20.580Z,49.78
2019-01-04T06:33:22.521Z,49.82
2019-01-04T06:34:24.449Z,49.86
2019-01-04T06:35:29.146Z,49.86
2019-01-04T06:36:31.676Z,49.87
2019-01-04T06:37:33.638Z,49.91
2019-01-04T06:38:35.596Z,49.91
2019-01-04T06:39:37.529Z,49.98
2019-01-04T06:40:39.478Z,49.99
2019-01-04T06:41:41.410Z,50.02
2019-01-04T06:42:43.354Z,50.02
2019-01-04T06:43:45.300Z,50.07
2019-01-04T06:44:47.246Z,50.14
2019-01-04T06:45:49.198Z,50.06
2019-01-04T06:46:51.211Z,50.12
2019-01-04T06:47:53.168Z,50.14
2019-01-04T06:48:55.108Z,50.18
2019-01-04T06:50:00.200Z,50.23
2019-01-04T06:51:02.211Z,50.20
2019-01-04T06:52:06.613Z,50.21
2019-01-04T06:53:08.566Z,50.25
2019-01-04T06:54:10.504Z,50.26
2019-01-04T06:55:12.422Z,50.33
2019-01-04T06:56:14.378Z,50.37
2019-01-04T06:57:16.407Z,50.40
2019-01-04T06:58:18.334Z,50.51
2019-01-04T06:59:20.278Z,50.50
2019-01-04T07:00:24.354Z,50.53
2019-01-04T07:01:28.390Z,50.48
2019-01-04T07:02:30.451Z,50.55
2019-01-04T07:03:32.390Z,50.59
2019-01-04T07:04:34.329Z,50.54
2019-01-04T07:05:36.284Z,50.59
2019-01-04T07:06:38.278Z,50.60
2019-01-04T07:07:40.256Z,50.62
2019-01-04T07:08:42.261Z,50.59
2019-01-04T07:09:44.201Z,50.63
2019-01-04T07:10:46.141Z,50.60
2019-01-04T07:11:48.100Z,50.51
2019-01-04T07:12:50.141Z,50.56
2019-01-04T07:13:52.156Z,50.59
2019-01-04T07:14:54.106Z,50.59
2019-01-04T07:15:56.033Z,50.59
2019-01-04T07:16:59.624Z,50.67
2019-01-04T07:18:01.578Z,50.63
2019-01-04T07:19:03.540Z,50.67
2019-01-04T07:20:05.488Z,50.60
2019-01-04T07:21:07.436Z,50.70
2019-01-04T07:22:09.384Z,50.73
2019-01-04T07:23:11.318Z,50.68
2019-01-04T07:24:13.347Z,50.75
2019-01-04T07:25:15.293Z,50.77
2019-01-04T07:26:17.252Z,50.70
2019-01-04T07:27:19.277Z,50.54
2019-01-04T07:28:21.309Z,50.74
2019-01-04T07:29:23.255Z,50.67
2019-01-04T07:30:25.182Z,50.73
2019-01-04T07:31:27.112Z,50.69
2019-01-04T07:32:29.070Z,50.64
2019-01-04T07:33:31.037Z,50.55
2019-01-04T07:34:33.055Z,50.43
2019-01-04T07:35:35.004Z,50.38
2019-01-04T07:36:36.929Z,50.24
2019-01-04T07:37:38.903Z,50.26
2019-01-04T07:38:40.914Z,50.20
2019-01-04T07:39:42.846Z,50.09
2019-01-04T07:40:44.783Z,50.12
2019-01-04T07:41:46.721Z,50.07
2019-01-04T07:42:48.689Z,49.86
2019-01-04T07:43:51.064Z,49.70
2019-01-04T07:44:53.013Z,49.74
2019-01-04T07:45:55.021Z,49.64
2019-01-04T07:46:57.442Z,49.52
2019-01-04T07:47:59.445Z,49.53
2019-01-04T07:49:01.383Z,49.51
2019-01-04T07:50:03.331Z,49.46
2019-01-04T07:51:05.405Z,49.47
2019-01-04T07:52:07.359Z,49.44
2019-01-04T07:53:09.321Z,49.38
2019-01-04T07:54:11.258Z,49.38
2019-01-04T07:55:13.206Z,49.38
2019-01-04T07:56:15.218Z,49.39
2019-01-04T07:57:17.151Z,49.46
2019-01-04T07:58:19.121Z,49.51
2019-01-04T07:59:21.063Z,49.52
2019-01-04T08:00:25.141Z,49.58
2019-01-04T08:01:27.075Z,49.58
2019-01-04T08:02:29.009Z,49.61
2019-01-04T08:03:30.960Z,49.61
2019-01-04T08:04:32.891Z,49.65
2019-01-04T08:05:35.843Z,49.65
2019-01-04T08:06:37.836Z,49.69
2019-01-04T08:07:39.778Z,49.70
2019-01-04T08:08:42.169Z,49.72
2019-01-04T08:09:44.128Z,49.72
2019-01-04T08:10:46.062Z,49.78
2019-01-04T08:11:49.147Z,49.79
2019-01-04T08:12:51.122Z,49.82
2019-01-04T08:13:53.072Z,49.85
2019-01-04T08:14:55.014Z,49.85
2019-01-04T08:15:56.972Z,49.82
2019-01-04T08:16:58.902Z,49.83
2019-01-04T08:18:00.857Z,49.88
2019-01-04T08:19:02.813Z,49.88
2019-01-04T08:20:04.759Z,49.88
2019-01-04T08:21:06.704Z,49.87
2019-01-04T08:22:08.646Z,49.92
2019-01-04T08:23:12.378Z,49.92
2019-01-04T08:24:14.305Z,49.92
2019-01-04T08:25:16.249Z,49.94
2019-01-04T08:26:18.181Z,49.99
2019-01-04T08:27:20.120Z,49.99
2019-01-04T08:28:22.077Z,50.01
2019-01-04T08:29:24.027Z,50.05
2019-01-04T08:30:25.957Z,50.08
2019-01-04T08:31:27.901Z,50.05
2019-01-04T08:32:29.830Z,50.11
2019-01-04T08:33:31.796Z,50.08
2019-01-04T08:34:35.507Z,50.09
2019-01-04T08:35:37.449Z,50.13
2019-01-04T08:36:39.457Z,50.16
2019-01-04T08:37:41.402Z,50.18
2019-01-04T08:38:43.390Z,50.16
2019-01-04T08:39:45.338Z,50.20
2019-01-04T08:40:47.402Z,50.20
2019-01-04T08:41:49.333Z,50.20
2019-01-04T08:42:51.284Z,50.22
2019-01-04T08:43:53.332Z,50.24
2019-01-04T08:44:55.338Z,50.24
2019-01-04T08:45:57.277Z,50.26
2019-01-04T08:46:59.223Z,50.29
2019-01-04T08:48:01.173Z,50.28
2019-01-04T08:49:03.210Z,50.30
2019-01-04T08:50:05.161Z,50.33
2019-01-04T08:51:07.117Z,50.33
2019-01-04T08:52:09.131Z,50.34
2019-01-04T08:53:11.165Z,50.36
2019-01-04T08:54:13.157Z,50.34
2019-01-04T08:55:15.159Z,50.36
2019-01-04T08:56:17.138Z,50.38
2019-01-04T08:57:19.156Z,50.39
2019-01-04T08:58:21.111Z,50.39
2019-01-04T08:59:23.153Z,50.39
2019-01-04T09:00:25.111Z,50.37
2019-01-04T09:01:27.041Z,50.38
2019-01-04T09:02:28.975Z,50.43
2019-01-04T09:03:30.908Z,50.45
2019-01-04T09:04:32.880Z,50.44
2019-01-04T09:05:34.821Z,50.46
2019-01-04T09:06:36.773Z,50.45
2019-01-04T09:07:38.713Z,50.48
2019-01-04T09:08:40.663Z,50.46
2019-01-04T09:09:42.648Z,50.45
2019-01-04T09:10:44.591Z,50.47
2019-01-04T09:11:46.609Z,50.50
2019-01-04T09:12:48.548Z,50.52
2019-01-04T09:13:50.492Z,50.52
2019-01-04T09:14:52.539Z,50.53
2019-01-04T09:15:54.499Z,50.52
2019-01-04T09:16:56.491Z,50.52
2019-01-04T09:17:58.437Z,50.51
2019-01-04T09:19:00.465Z,50.51
2019-01-04T09:20:02.447Z,50.52
2019-01-04T09:21:04.463Z,50.51
2019-01-04T09:22:06.417Z,50.52
2019-01-04T09:23:08.365Z,50.54
2019-01-04T09:24:10.302Z,50.53
2019-01-04T09:25:12.282Z,50.55
2019-01-04T09:26:14.389Z,50.55
2019-01-04T09:27:16.340Z,50.58
2019-01-04T09:28:18.274Z,50.62
2019-01-04T09:29:20.230Z,50.61
2019-01-04T09:30:24.031Z,50.60
2019-01-04T09:31:25.986Z,50.61
2019-01-04T09:32:28.015Z,50.58
2019-01-04T09:33:29.951Z,50.61
2019-01-04T09:34:34.074Z,50.60
2019-01-04T09:35:36.019Z,50.63
2019-01-04T09:36:37.980Z,50.66
2019-01-04T09:37:39.988Z,50.64
2019-01-04T09:38:41.919Z,50.65
2019-01-04T09:39:43.855Z,50.66
2019-01-04T09:40:45.832Z,50.66
2019-01-04T09:41:47.844Z,50.67
2019-01-04T09:42:49.779Z,50.68
2019-01-04T09:43:51.809Z,50.67
2019-01-04T09:44:53.747Z,50.65
2019-01-04T09:45:55.745Z,50.67
2019-01-04T09:46:57.688Z,50.67
2019-01-04T09:47:59.624Z,50.65
2019-01-04T09:49:01.576Z,50.63
2019-01-04T09:50:03.528Z,50.63
2019-01-04T09:51:05.575Z,50.65
2019-01-04T09:52:07.525Z,50.67
2019-01-04T09:53:09.474Z,50.65
2019-01-04T09:54:11.422Z,50.64
2019-01-04T09:55:13.372Z,50.66
2019-01-04T09:56:15.650Z,50.68
2019-01-04T09:57:23.325Z,50.64
2019-01-04T09:58:21.294Z,50.67
2019-01-04T09:59:23.302Z,50.67
2019-01-04T10:00:26.506Z,50.67
2019-01-04T10:01:28.708Z,50.69
2019-01-04T10:02:30.642Z,50.68
2019-01-04T10:03:32.576Z,50.68
2019-01-04T10:04:34.544Z,50.69
2019-01-04T10:05:36.494Z,50.67
2019-01-04T10:06:38.534Z,50.68
2019-01-04T10:07:40.468Z,50.67
2019-01-04T10:08:45.030Z,50.71
2019-01-04T10:09:46.153Z,50.68
2019-01-04T10:10:48.097Z,50.71
2019-01-04T10:11:50.068Z,50.67
2019-01-04T10:12:51.998Z,50.67
2019-01-04T10:13:53.954Z,50.69
2019-01-04T10:14:55.896Z,50.67
2019-01-04T10:15:57.907Z,50.68
2019-01-04T10:16:59.878Z,50.66
2019-01-04T10:18:01.826Z,50.70
2019-01-04T10:19:03.761Z,50.69
2019-01-04T10:20:05.700Z,50.70
2019-01-04T10:21:07.644Z,50.71
2019-01-04T10:22:11.324Z,50.71
2019-01-04T10:23:13.350Z,50.70
2019-01-04T10:24:15.307Z,50.69
2019-01-04T10:25:17.319Z,50.67
2019-01-04T10:26:19.261Z,50.67
2019-01-04T10:27:21.253Z,50.71
2019-01-04T10:28:23.189Z,50.72
2019-01-04T10:29:25.138Z,50.72
2019-01-04T10:30:27.168Z,50.71
2019-01-04T10:31:29.174Z,50.68
2019-01-04T10:32:31.160Z,50.69
2019-01-04T10:33:33.092Z,50.68
2019-01-04T10:34:35.050Z,50.70
2019-01-04T10:35:36.998Z,50.68
2019-01-04T10:36:38.947Z,50.66
2019-01-04T10:37:40.983Z,50.70
2019-01-04T10:38:42.950Z,50.70
2019-01-04T10:39:44.959Z,50.71
2019-01-04T10:40:46.908Z,50.69
2019-01-04T10:41:48.853Z,50.69
2019-01-04T10:42:50.827Z,50.71
2019-01-04T10:43:52.759Z,50.71
2019-01-04T10:44:54.692Z,50.71
2019-01-04T10:45:56.635Z,50.72
2019-01-04T10:46:58.596Z,50.70
2019-01-04T10:48:00.568Z,50.70
2019-01-04T10:49:02.505Z,50.70
2019-01-04T10:50:04.440Z,50.68
2019-01-04T10:51:07.844Z,50.67
2019-01-04T10:52:09.821Z,50.67
2019-01-04T10:53:11.886Z,50.67
2019-01-04T10:54:13.856Z,50.69
2019-01-04T10:55:15.899Z,50.66
2019-01-04T10:56:17.829Z,50.70
2019-01-04T10:57:19.785Z,50.70
2019-01-04T10:58:21.750Z,50.71
2019-01-04T10:59:23.708Z,50.70
2019-01-04T11:00:25.744Z,50.70
2019-01-04T11:01:27.692Z,50.72
2019-01-04T11:02:29.704Z,50.74
2019-01-04T11:03:31.665Z,50.73
2019-01-04T11:04:33.593Z,50.72
2019-01-04T11:05:35.529Z,50.74
2019-01-04T11:06:37.470Z,50.74
2019-01-04T11:07:39.431Z,50.72
2019-01-04T11:08:41.398Z,50.74
2019-01-04T11:09:43.346Z,50.70
2019-01-04T11:10:45.357Z,50.72
2019-01-04T11:11:51.107Z,50.72
2019-01-04T11:12:53.054Z,50.75
2019-01-04T11:13:55.089Z,50.75
2019-01-04T11:14:57.039Z,50.76
2019-01-04T11:15:58.971Z,50.76
2019-01-04T11:17:00.903Z,50.77
2019-01-04T11:18:03.384Z,50.77
2019-01-04T11:19:05.493Z,50.75
2019-01-04T11:20:07.456Z,50.74
2019-01-04T11:21:09.461Z,50.76
2019-01-04T11:22:11.411Z,50.75
2019-01-04T11:23:13.365Z,50.77
2019-01-04T11:24:15.332Z,50.76
2019-01-04T11:25:17.275Z,50.77
2019-01-04T11:26:19.463Z,50.79
2019-01-04T11:27:21.400Z,50.79
2019-01-04T11:28:23.337Z,50.80
2019-01-04T11:29:25.316Z,50.80
2019-01-04T11:30:27.285Z,50.79
2019-01-04T11:31:29.316Z,50.79
2019-01-04T11:32:31.240Z,50.79
2019-01-04T11:33:33.206Z,50.79
2019-01-04T11:34:35.235Z,50.82
2019-01-04T11:35:37.193Z,50.79
2019-01-04T11:36:39.139Z,50.78
2019-01-04T11:37:41.093Z,50.77
2019-01-04T11:38:43.045Z,50.81
2019-01-04T11:39:45.017Z,50.82
2019-01-04T11:40:46.953Z,50.83
2019-01-04T11:41:48.895Z,50.81
2019-01-04T11:42:50.901Z,50.80
2019-01-04T11:43:56.486Z,50.78
2019-01-04T11:44:58.457Z,50.77
2019-01-04T11:46:00.410Z,50.76
2019-01-04T11:47:02.343Z,50.79
2019-01-04T11:48:04.290Z,50.81
2019-01-04T11:49:06.300Z,50.83
2019-01-04T11:50:08.275Z,50.80
2019-01-04T11:51:10.216Z,50.81
2019-01-04T11:52:12.163Z,50.81
2019-01-04T11:53:14.101Z,50.79
2019-01-04T11:54:16.054Z,50.84
2019-01-04T11:55:18.267Z,50.84
2019-01-04T11:56:20.232Z,50.84
2019-01-04T11:57:22.265Z,50.85
2019-01-04T11:58:24.214Z,50.84
2019-01-04T11:59:26.189Z,50.87
2019-01-04T12:00:28.173Z,50.87
2019-01-04T12:01:30.184Z,50.89
2019-01-04T12:02:32.138Z,50.89
2019-01-04T12:03:34.155Z,50.86
2019-01-04T12:04:36.120Z,50.86
2019-01-04T12:05:38.150Z,50.86
2019-01-04T12:06:40.100Z,50.88
2019-01-04T12:07:42.046Z,50.88
2019-01-04T12:08:44.070Z,50.87
2019-01-04T12:09:46.010Z,50.88
2019-01-04T12:10:47.987Z,50.88
2019-01-04T12:11:52.397Z,50.90
2019-01-04T12:12:54.499Z,50.88
2019-01-04T12:13:56.447Z,50.87
2019-01-04T12:14:58.464Z,50.89
2019-01-04T12:16:03.575Z,50.92
2019-01-04T12:17:05.520Z,50.87
2019-01-04T12:18:07.477Z,50.85
2019-01-04T12:19:09.404Z,50.86
2019-01-04T12:20:11.362Z,50.87
2019-01-04T12:21:13.385Z,50.87
2019-01-04T12:22:15.337Z,50.90
2019-01-04T12:23:17.322Z,50.89
2019-01-04T12:24:19.316Z,50.86
2019-01-04T12:25:21.269Z,50.90
2019-01-04T12:26:23.310Z,50.94
2019-01-04T12:27:25.264Z,50.92
2019-01-04T12:28:27.278Z,50.88
2019-01-04T12:29:29.252Z,50.93
2019-01-04T12:30:31.263Z,50.92
2019-01-04T12:31:33.307Z,50.95
2019-01-04T12:32:35.299Z,50.89
2019-01-04T12:33:37.257Z,50.91
2019-01-04T12:34:39.265Z,50.92
2019-01-04T12:35:41.483Z,50.92
2019-01-04T12:36:43.562Z,50.90
2019-01-04T12:37:45.523Z,50.90
2019-01-04T12:38:47.476Z,50.93
2019-01-04T12:39:49.435Z,50.95
2019-01-04T12:40:51.378Z,50.91
2019-01-04T12:41:53.377Z,50.90
2019-01-04T12:42:55.317Z,50.95
2019-01-04T12:43:57.261Z,50.91
2019-01-04T12:44:59.206Z,50.95
2019-01-04T12:46:01.157Z,50.92
2019-01-04T12:47:03.219Z,50.96
2019-01-04T12:48:05.150Z,50.97
2019-01-04T12:49:07.102Z,51.00
2019-01-04T12:50:09.052Z,50.97
2019-01-04T12:51:11.010Z,50.99
2019-01-04T12:52:13.186Z,51.02
2019-01-04T12:53:15.138Z,51.03
2019-01-04T12:54:19.193Z,51.03
2019-01-04T12:55:21.223Z,51.06
2019-01-04T12:56:23.167Z,51.03
2019-01-04T12:57:25.150Z,51.06
2019-01-04T12:58:27.110Z,51.03
2019-01-04T12:59:29.040Z,51.03
2019-01-04T13:00:30.991Z,51.03
2019-01-04T13:01:32.948Z,51.00
2019-01-04T13:02:34.918Z,51.03
2019-01-04T13:03:36.867Z,51.06
2019-01-04T13:04:39.148Z,51.02
2019-01-04T13:05:41.090Z,51.02
2019-01-04T13:06:43.030Z,51.04
2019-01-04T13:07:45.083Z,51.08
2019-01-04T13:08:47.040Z,51.07
2019-01-04T13:09:48.989Z,51.09
2019-01-04T13:10:50.952Z,51.11
2019-01-04T13:11:53.346Z,51.10
2019-01-04T13:12:55.306Z,51.11
2019-01-04T13:13:57.805Z,51.09
2019-01-04T13:14:59.816Z,51.13
2019-01-04T13:16:01.763Z,51.10
2019-01-04T13:17:03.704Z,51.16
2019-01-04T13:18:05.730Z,51.14
2019-01-04T13:19:07.679Z,51.16
2019-01-04T13:20:09.631Z,51.16